SLSF weather

San Rafael Airport
Santa Cruz Department, Bolivia

Public forecast

Using degrees Celsius for public forecast. Weather courtesy of forecast.io.

METAR (pilot weather report)

Closest report is Viru Viru International Airport, 52.2 nm (96.6 km) WSW. Retrieved 2019/03/26 02:00 UTC (32 minutes ago):

SLVR 260200Z 18007KT 9999 SCT023 BKN070 BKN200 24/22 Q1014

TAF (pilot weather forecast)

Forecast is more than 12 hours old.

Closest forecast is Viru Viru International Airport, 52.2 nm (96.6 km) WSW. Retrieved 2019/03/25 00:25 UTC (1 day ago):

TAF SLVR 252150Z 2600/2624 18010KT 9999 BKN020 FEW030CB TX30/2620Z TN21/2610Z PROB40 TEMPO 2607/2610 8000 RA SCT006 BKN010 FEW030CB BKN070 BECMG 2612/2615 18015KT 9999 NSW BKN015 BECMG 2620/2623 5000 TSRA BKN010